^^
Your Local Weather - Clay, NY Station Historical Data
Daily Summary for February 24, 2018 Units:  English    Metric   Both
« Previous Day
Next Day »
Daily Weekly Monthly Yearly Custom
  High: Low: Average:
Temperature: 44.0 °F 29.8 °F 38.5 °F
Dew Point: 41.8 °F 26.1 °F 32.3 °F
Humidity: 92% 66% 79%
Wind Speed: 5.0mph 0.0mph 1.5mph
Wind Gust: 11.0mph - -
Wind- - NW
Pressure: 30.23 in 30.10 in -
Precipitation: 0.01 in    
Historical Graphs
 
 
Tabular Data for February 24, 2018
Time Temperature Dew Point Pressure Wind Wind Speed Wind Gust Humidity Rainfall Rate (Hourly) solar
00:00 44.0 °F 41.8 °F 30.10 in WNW 2.0 mph 2.0 mph 92% 0.00 in 0 W/m2
00:06 43.9 °F 41.7 °F 30.11 in NW 3.0 mph 6.0 mph 92% 0.00 in 0 W/m2
00:12 43.9 °F 41.7 °F 30.11 in WSW 3.0 mph 7.0 mph 92% 0.00 in 0 W/m2
00:18 43.7 °F 41.5 °F 30.11 in WNW 3.0 mph 7.0 mph 92% 0.00 in 0 W/m2
00:24 43.6 °F 41.4 °F 30.11 in WNW 3.0 mph 3.0 mph 92% 0.00 in 0 W/m2
00:30 43.5 °F 41.3 °F 30.11 in WNW 3.0 mph 3.0 mph 92% 0.00 in 0 W/m2
00:36 43.4 °F 41.2 °F 30.11 in WNW 2.0 mph 5.0 mph 92% 0.00 in 0 W/m2
00:42 43.3 °F 41.1 °F 30.11 in WNW 2.0 mph 2.0 mph 92% 0.00 in 0 W/m2
00:48 43.3 °F 41.1 °F 30.11 in WNW 2.0 mph 7.0 mph 92% 0.00 in 0 W/m2
00:54 43.3 °F 41.1 °F 30.11 in West 4.0 mph 6.0 mph 92% 0.00 in 0 W/m2
01:00 43.3 °F 41.1 °F 30.11 in WNW 5.0 mph 6.0 mph 92% 0.00 in 0 W/m2
01:06 43.3 °F 41.1 °F 30.11 in WNW 5.0 mph 6.0 mph 92% 0.00 in 0 W/m2
01:12 43.3 °F 40.8 °F 30.11 in WNW 4.0 mph 5.0 mph 91% 0.00 in 0 W/m2
01:18 43.3 °F 40.8 °F 30.12 in NNW 4.0 mph 7.0 mph 91% 0.00 in 0 W/m2
01:24 43.3 °F 40.6 °F 30.12 in WNW 4.0 mph 4.0 mph 90% 0.00 in 0 W/m2
01:30 43.3 °F 40.6 °F 30.12 in WNW 4.0 mph 4.0 mph 90% 0.00 in 0 W/m2
01:36 43.3 °F 40.3 °F 30.13 in WNW 4.0 mph 5.0 mph 89% 0.00 in 0 W/m2
01:42 43.2 °F 40.2 °F 30.13 in WNW 4.0 mph 4.0 mph 89% 0.00 in 0 W/m2
01:48 43.1 °F 39.8 °F 30.13 in West 5.0 mph 8.0 mph 88% 0.00 in 0 W/m2
01:54 42.9 °F 39.6 °F 30.13 in WNW 4.0 mph 5.0 mph 88% 0.00 in 0 W/m2
02:00 42.8 °F 39.2 °F 30.13 in WNW 3.0 mph 3.0 mph 87% 0.00 in 0 W/m2
02:06 42.7 °F 39.1 °F 30.13 in NW 3.0 mph 5.0 mph 87% 0.00 in 0 W/m2
02:12 42.6 °F 39.0 °F 30.13 in WNW 3.0 mph 4.0 mph 87% 0.00 in 0 W/m2
02:20 42.6 °F 38.7 °F 30.13 in WNW 3.0 mph 3.0 mph 86% 0.00 in 0 W/m2
02:26 42.5 °F 38.6 °F 30.13 in WNW 3.0 mph 4.0 mph 86% 0.00 in 0 W/m2
02:32 42.4 °F 38.2 °F 30.13 in WNW 3.0 mph 4.0 mph 85% 0.00 in 0 W/m2
02:38 42.3 °F 38.1 °F 30.13 in WNW 3.0 mph 6.0 mph 85% 0.00 in 0 W/m2
02:44 42.2 °F 38.0 °F 30.13 in WNW 2.0 mph 3.0 mph 85% 0.00 in 0 W/m2
02:50 42.1 °F 37.9 °F 30.13 in NW 2.0 mph 2.0 mph 85% 0.00 in 0 W/m2
02:56 42.1 °F 37.9 °F 30.13 in WNW 2.0 mph 2.0 mph 85% 0.00 in 0 W/m2
03:02 42.0 °F 37.8 °F 30.13 in NW 2.0 mph 2.0 mph 85% 0.00 in 0 W/m2
03:10 41.9 °F 37.7 °F 30.13 in NW 1.0 mph 1.0 mph 85% 0.00 in 0 W/m2
03:16 41.8 °F 37.6 °F 30.13 in NW 1.0 mph 2.0 mph 85% 0.00 in 0 W/m2
03:22 41.8 °F 37.3 °F 30.13 in NW 1.0 mph 2.0 mph 84% 0.00 in 0 W/m2
03:28 41.8 °F 37.3 °F 30.13 in NW 1.0 mph 2.0 mph 84% 0.00 in 0 W/m2
03:34 41.7 °F 37.5 °F 30.13 in NW 1.0 mph 2.0 mph 85% 0.00 in 0 W/m2
03:40 41.7 °F 37.5 °F 30.13 in NW 1.0 mph 1.0 mph 85% 0.00 in 0 W/m2
03:46 41.6 °F 37.4 °F 30.13 in NW 1.0 mph 2.0 mph 85% 0.00 in 0 W/m2
04:04 41.5 °F 37.0 °F 30.13 in NW 1.0 mph 1.0 mph 84% 0.00 in 0 W/m2
04:10 41.5 °F 37.0 °F 30.14 in NW 1.0 mph 1.0 mph 84% 0.00 in 0 W/m2
04:16 41.5 °F 37.0 °F 30.14 in NW 1.0 mph 1.0 mph 84% 0.00 in 0 W/m2
04:22 41.4 °F 36.9 °F 30.14 in NW 1.0 mph 1.0 mph 84% 0.00 in 0 W/m2
04:28 41.4 °F 36.9 °F 30.14 in Calm   1.0 mph 84% 0.00 in 0 W/m2
04:34 41.3 °F 36.8 °F 30.14 in Calm   1.0 mph 84% 0.00 in 0 W/m2
04:40 41.3 °F 36.8 °F 30.15 in NW 1.0 mph 1.0 mph 84% 0.00 in 0 W/m2
04:46 41.3 °F 37.1 °F 30.15 in NW 1.0 mph 1.0 mph 85% 0.00 in 0 W/m2
04:52 41.3 °F 37.1 °F 30.15 in NW 1.0 mph 1.0 mph 85% 0.00 in 0 W/m2
04:58 41.2 °F 37.0 °F 30.15 in NW 1.0 mph 1.0 mph 85% 0.00 in 0 W/m2
05:04 41.3 °F 37.1 °F 30.15 in NW 1.0 mph 1.0 mph 85% 0.00 in 0 W/m2
05:10 41.3 °F 37.4 °F 30.15 in NW 2.0 mph 2.0 mph 86% 0.00 in 0 W/m2
05:16 41.3 °F 37.4 °F 30.16 in WNW 2.0 mph 3.0 mph 86% 0.00 in 0 W/m2
05:22 41.4 °F 37.5 °F 30.16 in NW 3.0 mph 4.0 mph 86% 0.00 in 0 W/m2
05:28 41.3 °F 37.4 °F 30.16 in NW 4.0 mph 6.0 mph 86% 0.00 in 0 W/m2
05:34 41.1 °F 36.9 °F 30.16 in WNW 5.0 mph 6.0 mph 85% 0.00 in 0 W/m2
05:40 40.8 °F 36.6 °F 30.16 in NW 5.0 mph 5.0 mph 85% 0.00 in 0 W/m2
05:46 40.3 °F 35.8 °F 30.17 in NW 5.0 mph 11.0 mph 84% 0.00 in 0 W/m2
05:52 39.9 °F 35.5 °F 30.17 in West 4.0 mph 4.0 mph 84% 0.00 in 0 W/m2
05:58 39.6 °F 35.2 °F 30.17 in WNW 4.0 mph 5.0 mph 84% 0.00 in 0 W/m2
06:04 39.4 °F 34.7 °F 30.17 in NW 4.0 mph 7.0 mph 83% 0.00 in 0 W/m2
06:10 39.1 °F 34.4 °F 30.17 in NW 3.0 mph 3.0 mph 83% 0.00 in 0 W/m2
06:16 38.8 °F 33.8 °F 30.17 in WNW 3.0 mph 6.0 mph 82% 0.00 in 0 W/m2
06:22 38.7 °F 33.1 °F 30.18 in West 4.0 mph 8.0 mph 80% 0.00 in 0 W/m2
06:28 38.6 °F 32.6 °F 30.19 in WNW 4.0 mph 8.0 mph 79% 0.00 in 0 W/m2
06:34 38.6 °F 32.3 °F 30.18 in NNW 3.0 mph 5.0 mph 78% 0.00 in 0 W/m2
06:40 38.4 °F 32.1 °F 30.19 in NW 2.0 mph 2.0 mph 78% 0.00 in 0 W/m2
06:46 38.3 °F 31.7 °F 30.19 in NW 2.0 mph 3.0 mph 77% 0.00 in 0 W/m2
06:52 38.3 °F 32.0 °F 30.19 in NW 2.0 mph 2.0 mph 78% 0.00 in 0 W/m2
06:58 38.2 °F 31.6 °F 30.19 in NW 2.0 mph 3.0 mph 77% 0.00 in 0 W/m2
07:04 38.2 °F 31.6 °F 30.19 in WNW 3.0 mph 4.0 mph 77% 0.00 in 5 W/m2
07:10 38.1 °F 31.8 °F 30.20 in WNW 2.0 mph 2.0 mph 78% 0.00 in 5 W/m2
07:16 38.1 °F 31.8 °F 30.20 in WNW 2.0 mph 3.0 mph 78% 0.00 in 7 W/m2
07:22 38.1 °F 31.8 °F 30.20 in NW 2.0 mph 6.0 mph 78% 0.00 in 12 W/m2
07:28 38.0 °F 31.7 °F 30.20 in NW 2.0 mph 6.0 mph 78% 0.00 in 18 W/m2
07:34 38.0 °F 31.7 °F 30.20 in NW 2.0 mph 4.0 mph 78% 0.00 in 21 W/m2
07:40 38.0 °F 31.7 °F 30.21 in NW 2.0 mph 2.0 mph 78% 0.00 in 25 W/m2
07:46 38.0 °F 31.7 °F 30.21 in WNW 2.0 mph 4.0 mph 78% 0.00 in 33 W/m2
07:52 38.0 °F 31.7 °F 30.20 in WNW 2.0 mph 3.0 mph 78% 0.00 in 39 W/m2
07:58 38.1 °F 31.8 °F 30.20 in WNW 2.0 mph 3.0 mph 78% 0.00 in 47 W/m2
08:04 38.1 °F 31.8 °F 30.20 in WNW 2.0 mph 4.0 mph 78% 0.00 in 56 W/m2
08:10 38.2 °F 31.9 °F 30.20 in West 2.0 mph 3.0 mph 78% 0.00 in 65 W/m2
08:16 38.2 °F 31.9 °F 30.20 in NW 2.0 mph 5.0 mph 78% 0.00 in 72 W/m2
08:22 38.3 °F 32.0 °F 30.20 in NW 2.0 mph 3.0 mph 78% 0.00 in 83 W/m2
08:28 38.4 °F 32.1 °F 30.20 in NW 1.0 mph 3.0 mph 78% 0.00 in 104 W/m2
08:34 38.6 °F 32.3 °F 30.19 in NNW 1.0 mph 2.0 mph 78% 0.00 in 123 W/m2
08:40 38.8 °F 32.5 °F 30.19 in WNW 1.0 mph 1.0 mph 78% 0.00 in 192 W/m2
08:46 38.9 °F 32.3 °F 30.19 in NW 2.0 mph 3.0 mph 77% 0.00 in 107 W/m2
08:52 38.8 °F 32.2 °F 30.20 in WNW 2.0 mph 3.0 mph 77% 0.00 in 91 W/m2
08:58 38.7 °F 32.1 °F 30.20 in NW 3.0 mph 4.0 mph 77% 0.00 in 74 W/m2
09:04 38.7 °F 32.1 °F 30.20 in WNW 2.0 mph 3.0 mph 77% 0.00 in 102 W/m2
09:10 38.8 °F 32.2 °F 30.21 in WNW 2.0 mph 2.0 mph 77% 0.00 in 125 W/m2
09:16 39.0 °F 32.4 °F 30.21 in NNW 2.0 mph 2.0 mph 77% 0.00 in 186 W/m2
09:22 39.3 °F 32.7 °F 30.20 in NNW 2.0 mph 3.0 mph 77% 0.00 in 211 W/m2
09:28 39.4 °F 32.1 °F 30.20 in NNW 4.0 mph 5.0 mph 75% 0.00 in 130 W/m2
09:34 39.4 °F 32.1 °F 30.20 in WNW 3.0 mph 3.0 mph 75% 0.00 in 107 W/m2
09:40 39.4 °F 31.5 °F 30.21 in NNW 2.0 mph 2.0 mph 73% 0.00 in 130 W/m2
09:46 39.7 °F 32.1 °F 30.21 in NNW 2.0 mph 2.0 mph 74% 0.00 in 123 W/m2
09:52 39.7 °F 31.4 °F 30.21 in WNW 2.0 mph 4.0 mph 72% 0.00 in 146 W/m2
09:58 39.8 °F 31.2 °F 30.21 in WNW 2.0 mph 4.0 mph 71% 0.00 in 167 W/m2
10:04 39.8 °F 30.5 °F 30.22 in NW 3.0 mph 5.0 mph 69% 0.00 in 202 W/m2
10:10 40.0 °F 30.6 °F 30.22 in WNW 4.0 mph 4.0 mph 69% 0.00 in 181 W/m2
10:16 40.1 °F 31.4 °F 30.22 in NW 3.0 mph 4.0 mph 71% 0.00 in 211 W/m2
10:22 40.4 °F 31.0 °F 30.22 in WNW 2.0 mph 3.0 mph 69% 0.00 in 179 W/m2
10:28 40.3 °F 30.9 °F 30.22 in WNW 3.0 mph 4.0 mph 69% 0.00 in 204 W/m2
10:34 40.3 °F 31.3 °F 30.22 in NNW 3.0 mph 3.0 mph 70% 0.00 in 237 W/m2
10:40 40.3 °F 30.9 °F 30.22 in North 3.0 mph 4.0 mph 69% 0.00 in 207 W/m2
10:46 40.2 °F 30.8 °F 30.23 in NW 4.0 mph 5.0 mph 69% 0.00 in 156 W/m2
10:52 40.0 °F 30.6 °F 30.23 in NNW 4.0 mph 4.0 mph 69% 0.00 in 179 W/m2
10:58 40.1 °F 31.1 °F 30.22 in NNW 3.0 mph 4.0 mph 70% 0.00 in 142 W/m2
11:04 39.9 °F 30.9 °F 30.22 in NW 3.0 mph 4.0 mph 70% 0.00 in 160 W/m2
11:10 40.0 °F 31.0 °F 30.22 in WNW 3.0 mph 3.0 mph 70% 0.00 in 151 W/m2
11:16 40.0 °F 31.4 °F 30.22 in NW 2.0 mph 3.0 mph 71% 0.00 in 167 W/m2
11:22 40.0 °F 31.0 °F 30.22 in NNW 2.0 mph 4.0 mph 70% 0.00 in 200 W/m2
11:28 39.9 °F 30.9 °F 30.22 in North 3.0 mph 6.0 mph 70% 0.00 in 181 W/m2
11:34 40.1 °F 31.1 °F 30.21 in NNW 3.0 mph 3.0 mph 70% 0.00 in 190 W/m2
11:40 40.2 °F 31.2 °F 30.21 in NW 3.0 mph 3.0 mph 70% 0.00 in 216 W/m2
11:46 40.3 °F 31.3 °F 30.21 in NW 3.0 mph 4.0 mph 70% 0.00 in 269 W/m2
11:52 40.6 °F 31.6 °F 30.21 in WNW 3.0 mph 3.0 mph 70% 0.00 in 271 W/m2
11:58 40.7 °F 31.3 °F 30.20 in WNW 2.0 mph 3.0 mph 69% 0.00 in 332 W/m2
12:04 40.9 °F 31.5 °F 30.21 in NNW 3.0 mph 3.0 mph 69% 0.00 in 288 W/m2
12:10 40.9 °F 31.5 °F 30.20 in NW 3.0 mph 3.0 mph 69% 0.00 in 292 W/m2
12:16 41.1 °F 32.1 °F 30.20 in NW 2.0 mph 3.0 mph 70% 0.00 in 230 W/m2
12:22 41.1 °F 31.7 °F 30.19 in NW 1.0 mph 1.0 mph 69% 0.00 in 211 W/m2
12:28 41.0 °F 31.6 °F 30.18 in NW 2.0 mph 5.0 mph 69% 0.00 in 220 W/m2
12:34 40.9 °F 31.1 °F 30.18 in NW 2.0 mph 2.0 mph 68% 0.00 in 197 W/m2
12:40 40.9 °F 31.1 °F 30.18 in NW 1.0 mph 3.0 mph 68% 0.00 in 179 W/m2
12:46 40.9 °F 31.5 °F 30.19 in NW 1.0 mph 3.0 mph 69% 0.00 in 151 W/m2
12:52 40.6 °F 30.9 °F 30.19 in NNW 2.0 mph 4.0 mph 68% 0.00 in 141 W/m2
12:58 40.6 °F 30.9 °F 30.18 in North 2.0 mph 4.0 mph 68% 0.00 in 155 W/m2
13:04 40.6 °F 31.2 °F 30.18 in NNW 2.0 mph 2.0 mph 69% 0.00 in 155 W/m2
13:10 40.6 °F 31.2 °F 30.17 in NNW 1.0 mph 2.0 mph 69% 0.00 in 149 W/m2
13:16 40.6 °F 31.2 °F 30.18 in NNW 2.0 mph 2.0 mph 69% 0.00 in 123 W/m2
13:22 40.4 °F 30.7 °F 30.18 in NNW 2.0 mph 3.0 mph 68% 0.00 in 139 W/m2
13:28 40.5 °F 31.1 °F 30.19 in WNW 2.0 mph 6.0 mph 69% 0.00 in 123 W/m2
13:34 40.4 °F 31.0 °F 30.18 in WNW 2.0 mph 3.0 mph 69% 0.00 in 146 W/m2
13:40 40.5 °F 31.1 °F 30.18 in WNW 2.0 mph 2.0 mph 69% 0.00 in 127 W/m2
13:46 40.3 °F 30.9 °F 30.18 in WNW 2.0 mph 3.0 mph 69% 0.00 in 114 W/m2
13:52 40.2 °F 30.5 °F 30.18 in NW 2.0 mph 3.0 mph 68% 0.00 in 104 W/m2
13:58 40.2 °F 30.8 °F 30.18 in NW 2.0 mph 4.0 mph 69% 0.00 in 91 W/m2
14:04 40.2 °F 30.8 °F 30.17 in NNW 2.0 mph 5.0 mph 69% 0.00 in 84 W/m2
14:10 40.0 °F 30.3 °F 30.17 in NW 2.0 mph 2.0 mph 68% 0.00 in 98 W/m2
14:16 40.0 °F 30.6 °F 30.17 in NW 1.0 mph 2.0 mph 69% 0.00 in 116 W/m2
14:22 40.1 °F 30.4 °F 30.17 in NW 1.0 mph 3.0 mph 68% 0.00 in 139 W/m2
14:28 40.3 °F 30.6 °F 30.17 in NW 1.0 mph 3.0 mph 68% 0.00 in 146 W/m2
14:34 40.4 °F 30.7 °F 30.17 in Calm   2.0 mph 68% 0.00 in 160 W/m2
14:40 40.7 °F 31.3 °F 30.17 in NW 1.0 mph 1.0 mph 69% 0.00 in 144 W/m2
14:46 40.7 °F 31.0 °F 30.17 in NW 1.0 mph 1.0 mph 68% 0.00 in 142 W/m2
14:52 40.7 °F 30.6 °F 30.18 in NW 1.0 mph 1.0 mph 67% 0.00 in 144 W/m2
14:58 40.7 °F 31.0 °F 30.18 in NW 1.0 mph 2.0 mph 68% 0.00 in 148 W/m2
15:04 40.5 °F 30.4 °F 30.19 in NW 1.0 mph 2.0 mph 67% 0.00 in 153 W/m2
15:10 40.6 °F 30.5 °F 30.18 in NW 1.0 mph 1.0 mph 67% 0.00 in 167 W/m2
15:16 40.5 °F 30.4 °F 30.18 in NW 1.0 mph 1.0 mph 67% 0.00 in 165 W/m2
15:22 40.6 °F 30.5 °F 30.18 in NW 1.0 mph 2.0 mph 67% 0.00 in 162 W/m2
15:28 40.7 °F 31.0 °F 30.18 in NW 1.0 mph 3.0 mph 68% 0.00 in 156 W/m2
15:34 40.6 °F 30.5 °F 30.18 in NW 1.0 mph 1.0 mph 67% 0.00 in 174 W/m2
15:40 40.7 °F 30.6 °F 30.19 in NW 1.0 mph 1.0 mph 67% 0.00 in 163 W/m2
15:46 40.8 °F 30.7 °F 30.19 in NW 1.0 mph 3.0 mph 67% 0.00 in 139 W/m2
15:52 40.7 °F 30.2 °F 30.19 in Calm   1.0 mph 66% 0.00 in 104 W/m2
15:58 40.6 °F 30.5 °F 30.18 in Calm   2.0 mph 67% 0.00 in 91 W/m2
16:04 40.4 °F 30.3 °F 30.17 in NW 1.0 mph 1.0 mph 67% 0.00 in 98 W/m2
16:10 40.4 °F 30.7 °F 30.17 in Calm     68% 0.00 in 97 W/m2
16:16 40.4 °F 30.7 °F 30.17 in NW 1.0 mph 1.0 mph 68% 0.00 in 79 W/m2
16:22 40.2 °F 30.1 °F 30.17 in NW 1.0 mph 1.0 mph 67% 0.00 in 81 W/m2
16:28 40.2 °F 30.1 °F 30.17 in Calm   1.0 mph 67% 0.00 in 77 W/m2
16:34 40.1 °F 30.4 °F 30.17 in Calm   2.0 mph 68% 0.00 in 86 W/m2
16:40 40.0 °F 29.9 °F 30.17 in NW 1.0 mph 1.0 mph 67% 0.00 in 67 W/m2
16:46 39.9 °F 29.8 °F 30.17 in NW 1.0 mph 1.0 mph 67% 0.00 in 56 W/m2
16:52 39.8 °F 29.4 °F 30.17 in NW 1.0 mph 2.0 mph 66% 0.00 in 51 W/m2
16:58 39.7 °F 29.6 °F 30.17 in Calm   2.0 mph 67% 0.00 in 33 W/m2
17:04 39.6 °F 29.5 °F 30.17 in Calm     67% 0.00 in 33 W/m2
17:10 39.5 °F 29.8 °F 30.17 in Calm     68% 0.00 in 28 W/m2
17:16 39.4 °F 29.3 °F 30.16 in Calm     67% 0.00 in 26 W/m2
17:22 39.3 °F 30.0 °F 30.16 in Calm     69% 0.00 in 35 W/m2
17:28 39.1 °F 30.1 °F 30.15 in Calm   1.0 mph 70% 0.00 in 28 W/m2
17:34 39.0 °F 29.7 °F 30.15 in Calm     69% 0.00 in 28 W/m2
17:40 39.0 °F 29.7 °F 30.16 in Calm     69% 0.00 in 9 W/m2
17:46 38.8 °F 29.5 °F 30.16 in Calm     69% 0.00 in 0 W/m2
17:52 38.4 °F 29.5 °F 30.16 in Calm     70% 0.00 in 0 W/m2
17:58 38.0 °F 29.8 °F 30.17 in Calm     72% 0.00 in 0 W/m2
18:04 37.5 °F 29.6 °F 30.17 in Calm     73% 0.00 in 0 W/m2
18:10 37.0 °F 29.1 °F 30.17 in Calm     73% 0.00 in 0 W/m2
18:16 36.4 °F 28.9 °F 30.17 in Calm     74% 0.00 in 0 W/m2
18:22 35.7 °F 28.2 °F 30.17 in Calm     74% 0.00 in 0 W/m2
18:28 35.2 °F 28.1 °F 30.17 in Calm     75% 0.00 in 0 W/m2
18:34 34.6 °F 27.8 °F 30.17 in Calm     76% 0.00 in 0 W/m2
18:40 34.1 °F 27.6 °F 30.17 in Calm     77% 0.00 in 0 W/m2
18:46 33.6 °F 27.5 °F 30.18 in Calm     78% 0.00 in 0 W/m2
18:52 33.2 °F 27.4 °F 30.19 in Calm     79% 0.00 in 0 W/m2
18:58 32.9 °F 27.4 °F 30.18 in Calm     80% 0.00 in 0 W/m2
19:04 32.6 °F 27.4 °F 30.19 in Calm     81% 0.00 in 0 W/m2
19:10 32.3 °F 27.1 °F 30.19 in Calm     81% 0.00 in 0 W/m2
19:16 32.1 °F 27.2 °F 30.19 in Calm     82% 0.00 in 0 W/m2
19:22 31.9 °F 27.0 °F 30.19 in Calm     82% 0.00 in 0 W/m2
19:28 31.5 °F 26.9 °F 30.19 in Calm     83% 0.00 in 0 W/m2
19:34 31.3 °F 26.7 °F 30.18 in Calm     83% 0.00 in 0 W/m2
19:40 31.2 °F 26.9 °F 30.19 in Calm     84% 0.00 in 0 W/m2
19:46 31.1 °F 27.1 °F 30.19 in Calm     85% 0.00 in 0 W/m2
19:52 30.8 °F 26.8 °F 30.19 in Calm     85% 0.00 in 0 W/m2
19:56 30.7 °F 26.7 °F 30.19 in Calm     85% 0.00 in 0 W/m2
20:02 30.5 °F 26.8 °F 30.20 in Calm     86% 0.00 in 0 W/m2
20:08 30.3 °F 26.6 °F 30.20 in Calm     86% 0.00 in 0 W/m2
20:14 30.1 °F 26.4 °F 30.19 in Calm     86% 0.00 in 0 W/m2
20:20 30.0 °F 26.3 °F 30.20 in Calm     86% 0.00 in 0 W/m2
20:26 29.8 °F 26.1 °F 30.19 in Calm     86% 0.00 in 0 W/m2
20:32 30.0 °F 26.6 °F 30.19 in Calm     87% 0.00 in 0 W/m2
20:38 30.4 °F 27.0 °F 30.19 in Calm     87% 0.00 in 0 W/m2
20:44 30.6 °F 27.5 °F 30.19 in Calm     88% 0.00 in 0 W/m2
20:50 30.8 °F 27.7 °F 30.19 in Calm     88% 0.00 in 0 W/m2
20:56 30.9 °F 27.8 °F 30.19 in Calm     88% 0.00 in 0 W/m2
21:02 30.9 °F 27.8 °F 30.19 in Calm     88% 0.00 in 0 W/m2
21:08 31.2 °F 28.1 °F 30.19 in Calm     88% 0.00 in 0 W/m2
21:14 31.5 °F 28.4 °F 30.19 in Calm     88% 0.00 in 0 W/m2
21:20 31.7 °F 28.6 °F 30.19 in Calm     88% 0.00 in 0 W/m2
21:26 31.8 °F 28.9 °F 30.19 in Calm     89% 0.00 in 0 W/m2
21:32 31.8 °F 28.9 °F 30.19 in Calm     89% 0.00 in 0 W/m2
21:38 31.8 °F 28.7 °F 30.19 in Calm     88% 0.00 in 0 W/m2
21:44 31.9 °F 29.0 °F 30.19 in Calm     89% 0.00 in 0 W/m2
21:50 31.9 °F 29.0 °F 30.18 in Calm     89% 0.00 in 0 W/m2
21:56 32.0 °F 29.1 °F 30.17 in Calm   1.0 mph 89% 0.00 in 0 W/m2
22:02 32.0 °F 29.1 °F 30.17 in Calm     89% 0.00 in 0 W/m2
22:08 32.1 °F 29.2 °F 30.17 in Calm     89% 0.00 in 0 W/m2
22:14 32.3 °F 29.4 °F 30.17 in Calm     89% 0.00 in 0 W/m2
22:20 32.3 °F 29.4 °F 30.17 in Calm   1.0 mph 89% 0.00 in 0 W/m2
22:26 32.5 °F 29.6 °F 30.17 in Calm   1.0 mph 89% 0.00 in 0 W/m2
22:32 32.6 °F 29.7 °F 30.17 in Calm     89% 0.00 in 0 W/m2
22:38 32.7 °F 29.5 °F 30.17 in Calm     88% 0.00 in 0 W/m2
22:46 32.8 °F 29.6 °F 30.16 in Calm     88% 0.00 in 0 W/m2
22:52 32.8 °F 29.6 °F 30.15 in Calm     88% 0.00 in 0 W/m2
22:58 32.8 °F 29.6 °F 30.14 in NW 1.0 mph 2.0 mph 88% 0.00 in 0 W/m2
23:04 32.8 °F 29.6 °F 30.13 in NW 1.0 mph 3.0 mph 88% 0.00 in 0 W/m2
23:10 32.8 °F 29.4 °F 30.13 in NW 1.0 mph 1.0 mph 87% 0.00 in 0 W/m2
23:16 33.0 °F 29.6 °F 30.13 in NW 1.0 mph 1.0 mph 87% 0.00 in 0 W/m2
23:22 33.0 °F 29.6 °F 30.13 in NW 1.0 mph 1.0 mph 87% 0.00 in 0 W/m2
23:28 33.0 °F 29.6 °F 30.13 in Calm   1.0 mph 87% 0.00 in 0 W/m2
23:34 32.9 °F 29.2 °F 30.13 in Calm   2.0 mph 86% 0.00 in 0 W/m2
23:40 32.9 °F 29.5 °F 30.13 in Calm   2.0 mph 87% 0.00 in 0 W/m2
23:46 33.0 °F 29.3 °F 30.13 in ENE 1.0 mph 2.0 mph 86% 0.00 in 0 W/m2
23:52 33.1 °F 29.4 °F 30.13 in Calm     86% 0.00 in 0 W/m2
23:58 33.2 °F 29.5 °F 30.13 in Calm   2.0 mph 86% 0.00 in 0 W/m2
Country Meadow, Clay, NY, USA
Compliments of Weather Underground - 2 mb